Cadiz, Kentucky
Current Conditions -  °F | °C
As of 7:58 PM on Monday 24 Nov 2014 (Local Time) from KHOP Reporting Station
Clear Clear  
Wind Chill: 42°   Ceiling: Unl
Heat Index: 42°   Visibility: 10mi
Dew Point: 32°   Wind: 3mph
Humidity: 67%   Direction: 200°SSW
Pressure: 29.96"   Gusts: NA
Location:  36.87°N, 87.84°W
Report Text: KHOP 250158Z AUTO 20003KT 10SM CLR 06/00 A2996 RMK AO2 SLP148 T00580000
Loading
Personal Weather Stations






























Interactive Weather Map New forecast layout! Learn more

10-Day Weather Forecast

Advertisements
Track Severe Weather on mobile